Hayden, CO

9:30 PM MDT on October 24, 2014 (GMT -0600)
Yampa Valley | Change Station
CLOSE
Current Station
Airport
Location: Hayden,
Elevation: 6601 ft
Nearby Weather Stations

Elev 6601 ft 40.48 °N, 107.22 °W | Updated 15 minutes ago

Clear
Clear
52 °F
Feels Like 52 °F
N
4
Wind Variable Wind from ENE

Today
High -- | Low -- °F
--% Chance of Precip.
Yesterday
High -- | Low -- °F
Precip. -- in
7:29 AM 6:15 PM
New Moon, 2% visible
Pressure 30.31 in
Visibility 10.0 miles
Clouds Clear
Dew Point 25 °F
Humidity 35%
Rainfall 0.00 in
Snow Depth Not available.
UV 0 out of 12
Pollen 1.80 out of 12
Air Quality Not available.
Flu Activity Sporadic
METAR KHDN 250315Z AUTO 07003KT 10SM CLR 11/M04 A3031 RMK AO1

More Conditions Fewer Conditions

Pressure 30.31 in
Visibility 10.0 miles
Clouds Clear
Dew Point 25 °F
Humidity 35%
Rainfall 0.00 in
Snow Depth Not available.
UV 0 out of 12
Pollen 1.80 out of 12
Air Quality Not available.
Flu Activity Sporadic
METAR KHDN 250315Z AUTO 07003KT 10SM CLR 11/M04 A3031 RMK AO1

More Conditions Fewer Conditions

10-Day Weather Forecast

Almanac

Astronomy

Oct. 24, 2014 Rise Set
Actual Time 7:29 AM MDT 6:15 PM MDT
Civil Twilight 7:02 AM MDT 6:43 PM MDT
Nautical Twilight 6:30 AM MDT 7:15 PM MDT
Astronomical Twilight 5:58 AM MDT 7:47 PM MDT
Moon 8:11 AM MDT (10/24) 6:57 PM MDT (10/24)
Length of Visible Light 11h 41m
Length of Day
10h 46m
Tomorrow will be 2m 30s shorter.
New Moon, 2% of the Moon is Illuminated
Today
New Moon
Oct 30
First Quarter
Nov 6
Full
Nov 14
Last Quarter
Nov 22
New

Today's Extremes

State Highs State Lows

Community

WunderPhotos

Upload Photos

1,764,769 photos uploaded!

Nearby

Snow Depth

Station Depth Elevation
Dry Lake 0 in 8400 ft
Rabbit Ears 0 in 9400 ft
Elk River 0 in 8700 ft
Bear RIver 0 in 9080 ft
Trapper Lake 0 in 9700 ft

Earthquake Activity

City Distance Mag. Time & Date
No recent earthquake activity has been reported nearby.
Minimum magnitude displayed is 2.5.

Coastal Water Temperatures

Place Temperature
No Stations Reporting

Nearby Weather Stations